WXForecasting.com
Aberdeen, SD - Weather Station Data
Daily Summary for October 13, 2017 Units:  English    Metric   Both
Next Day »
Daily Weekly Monthly Yearly Custom
  High: Low: Average:
Temperature: 62.0 °F 33.3 °F 48.4 °F
Dew Point: 37.0 °F 28.0 °F 32.6 °F
Humidity: 86% 33% 57%
Wind Speed: 6.0mph 0.0mph 1.4mph
Wind Gust: 11.0mph - -
Wind- - SSE
Pressure: 30.20 in 30.08 in -
Precipitation: 0.00 in    
Historical Graphs
 
 
Tabular Data for October 13, 2017
Time Temperature Dew Point Pressure Wind Wind Speed Wind Gust Humidity Rainfall Rate (Hourly) solar Conditions
00:09 48.3 °F 33.0 °F 30.08 in WNW 2.0 mph 9.0 mph 56% 0.00 in 0 W/m2
00:25 48.0 °F 33.0 °F 30.09 in Calm   11.0 mph 56% 0.00 in 0 W/m2
00:39 47.7 °F 32.0 °F 30.09 in NNW 1.0 mph 11.0 mph 56% 0.00 in 0 W/m2
00:55 47.3 °F 33.0 °F 30.09 in NW 2.0 mph 10.0 mph 57% 0.00 in 0 W/m2
01:09 47.0 °F 32.0 °F 30.10 in NW 6.0 mph 10.0 mph 57% 0.00 in 0 W/m2
01:25 46.6 °F 32.0 °F 30.11 in NW 3.0 mph 5.0 mph 58% 0.00 in 0 W/m2
01:40 46.1 °F 32.0 °F 30.10 in NW 1.0 mph 9.0 mph 58% 0.00 in 0 W/m2
01:55 45.6 °F 32.0 °F 30.11 in Calm   5.0 mph 59% 0.00 in 0 W/m2
02:10 45.1 °F 32.0 °F 30.10 in NW 1.0 mph 6.0 mph 60% 0.00 in 0 W/m2
02:25 44.7 °F 32.0 °F 30.13 in Calm   3.0 mph 62% 0.00 in 0 W/m2
02:40 44.3 °F 32.0 °F 30.12 in Calm   1.0 mph 63% 0.00 in 0 W/m2
02:55 43.7 °F 33.0 °F 30.14 in NW 1.0 mph 2.0 mph 65% 0.00 in 0 W/m2
03:10 43.6 °F 32.0 °F 30.13 in Calm     64% 0.00 in 0 W/m2
03:25 43.2 °F 32.0 °F 30.10 in Calm   1.0 mph 65% 0.00 in 0 W/m2
03:40 42.7 °F 32.0 °F 30.11 in Calm   1.0 mph 67% 0.00 in 0 W/m2
03:55 42.4 °F 32.0 °F 30.11 in Calm   1.0 mph 68% 0.00 in 0 W/m2
04:10 42.2 °F 32.0 °F 30.11 in Calm     67% 0.00 in 0 W/m2
04:25 42.4 °F 32.0 °F 30.10 in Calm   2.0 mph 67% 0.00 in 0 W/m2
04:40 42.3 °F 32.0 °F 30.11 in Calm     67% 0.00 in 0 W/m2
04:55 41.6 °F 32.0 °F 30.13 in Calm   1.0 mph 70% 0.00 in 0 W/m2
05:10 41.3 °F 33.0 °F 30.12 in Calm   2.0 mph 71% 0.00 in 0 W/m2
05:26 40.5 °F 32.0 °F 30.13 in Calm   2.0 mph 72% 0.00 in 0 W/m2
05:41 39.8 °F 32.0 °F 30.13 in Calm     73% 0.00 in 0 W/m2
05:56 39.0 °F 32.0 °F 30.13 in Calm     75% 0.00 in 0 W/m2
06:10 38.2 °F 31.0 °F 30.14 in Calm   2.0 mph 76% 0.00 in 0 W/m2
06:25 37.5 °F 31.0 °F 30.14 in Calm   1.0 mph 78% 0.00 in 0 W/m2
06:40 36.8 °F 30.0 °F 30.14 in Calm     77% 0.00 in 0 W/m2
06:55 35.9 °F 30.0 °F 30.14 in Calm     78% 0.00 in 0 W/m2
07:11 35.1 °F 30.0 °F 30.15 in Calm     80% 0.00 in 0 W/m2
07:26 34.6 °F 29.0 °F 30.16 in Calm     81% 0.00 in 0 W/m2
07:40 33.9 °F 29.0 °F 30.17 in Calm     81% 0.00 in 0 W/m2
07:56 33.3 °F 28.0 °F 30.17 in Calm     82% 0.00 in 7 W/m2
08:11 33.4 °F 29.0 °F 30.17 in Calm     83% 0.00 in 14 W/m2
08:26 33.3 °F 29.0 °F 30.18 in Calm     83% 0.00 in 23 W/m2
08:41 33.7 °F 30.0 °F 30.19 in Calm     85% 0.00 in 40 W/m2
08:56 35.8 °F 32.0 °F 30.19 in Calm     86% 0.00 in 141 W/m2
09:11 40.6 °F 35.0 °F 30.19 in Calm   1.0 mph 79% 0.00 in 186 W/m2
09:26 43.3 °F 33.0 °F 30.19 in Calm   2.0 mph 68% 0.00 in 237 W/m2
09:41 44.8 °F 34.0 °F 30.19 in Calm   4.0 mph 66% 0.00 in 279 W/m2
09:56 45.4 °F 35.0 °F 30.20 in SSW 2.0 mph 6.0 mph 66% 0.00 in 315 W/m2
10:11 47.0 °F 35.0 °F 30.20 in SW 2.0 mph 6.0 mph 63% 0.00 in 350 W/m2
10:26 48.2 °F 35.0 °F 30.20 in South 5.0 mph 7.0 mph 60% 0.00 in 385 W/m2
10:41 49.5 °F 35.0 °F 30.20 in South 2.0 mph 6.0 mph 58% 0.00 in 417 W/m2
10:56 50.3 °F 34.0 °F 30.20 in SW 3.0 mph 7.0 mph 55% 0.00 in 394 W/m2
11:11 51.5 °F 35.0 °F 30.20 in SW 6.0 mph 6.0 mph 54% 0.00 in 475 W/m2
11:26 51.9 °F 35.0 °F 30.20 in SW 6.0 mph 7.0 mph 53% 0.00 in 496 W/m2
11:42 52.8 °F 35.0 °F 30.20 in SW 2.0 mph 7.0 mph 51% 0.00 in 517 W/m2
11:57 54.0 °F 34.0 °F 30.19 in SW 1.0 mph 9.0 mph 48% 0.00 in 540 W/m2
12:12 54.2 °F 35.0 °F 30.20 in Calm   6.0 mph 49% 0.00 in 554 W/m2
12:27 54.8 °F 35.0 °F 30.19 in SSW 1.0 mph 7.0 mph 47% 0.00 in 554 W/m2
12:42 56.2 °F 36.0 °F 30.19 in SE 1.0 mph 7.0 mph 47% 0.00 in 575 W/m2
12:57 57.1 °F 36.0 °F 30.18 in SE 4.0 mph 5.0 mph 46% 0.00 in 578 W/m2
13:12 57.4 °F 35.0 °F 30.17 in SE 1.0 mph 6.0 mph 44% 0.00 in 578 W/m2
13:27 58.1 °F 37.0 °F 30.17 in ESE 4.0 mph 7.0 mph 45% 0.00 in 584 W/m2
13:42 58.3 °F 35.0 °F 30.16 in SSW 2.0 mph 5.0 mph 42% 0.00 in 577 W/m2
13:57 58.8 °F 34.0 °F 30.14 in ESE 4.0 mph 8.0 mph 40% 0.00 in 564 W/m2
14:12 59.4 °F 36.0 °F 30.14 in SE 4.0 mph 6.0 mph 42% 0.00 in 559 W/m2
14:27 59.7 °F 33.0 °F 30.13 in NE 2.0 mph 6.0 mph 36% 0.00 in 541 W/m2
14:42 59.5 °F 34.0 °F 30.13 in SSW 2.0 mph 6.0 mph 38% 0.00 in 524 W/m2
14:57 60.3 °F 34.0 °F 30.12 in ESE 4.0 mph 8.0 mph 37% 0.00 in 503 W/m2
15:12 60.5 °F 35.0 °F 30.12 in Calm   8.0 mph 38% 0.00 in 480 W/m2
15:27 61.6 °F 33.0 °F 30.11 in ESE 1.0 mph 7.0 mph 34% 0.00 in 450 W/m2
15:42 61.2 °F 32.0 °F 30.11 in East 1.0 mph 5.0 mph 34% 0.00 in 418 W/m2
15:57 61.4 °F 33.0 °F 30.11 in ESE 3.0 mph 9.0 mph 35% 0.00 in 390 W/m2
16:12 62.0 °F 32.0 °F 30.10 in ENE 3.0 mph 9.0 mph 33% 0.00 in 357 W/m2
16:27 61.3 °F 32.0 °F 30.09 in SSE 3.0 mph 8.0 mph 33% 0.00 in 323 W/m2
16:42 61.7 °F 32.0 °F 30.09 in ESE 1.0 mph 8.0 mph 33% 0.00 in 283 W/m2
16:57 61.1 °F 32.0 °F 30.08 in SE 1.0 mph 9.0 mph 33% 0.00 in 246 W/m2
17:12 61.0 °F 32.0 °F 30.08 in ESE 4.0 mph 11.0 mph 33% 0.00 in 202 W/m2
17:27 60.7 °F 33.0 °F 30.08 in SSE 2.0 mph 10.0 mph 35% 0.00 in 153 W/m2
17:42 60.0 °F 32.0 °F 30.08 in SE 4.0 mph 8.0 mph 35% 0.00 in 107 W/m2
17:57 59.4 °F 33.0 °F 30.08 in SE 2.0 mph 6.0 mph 37% 0.00 in 63 W/m2
18:12 58.6 °F 32.0 °F 30.09 in ESE 1.0 mph 7.0 mph 37% 0.00 in 33 W/m2
18:27 57.5 °F 32.0 °F 30.09 in ESE 3.0 mph 4.0 mph 38% 0.00 in 18 W/m2
18:42 56.4 °F 32.0 °F 30.08 in ESE 4.0 mph 4.0 mph 39% 0.00 in 11 W/m2
18:57 55.0 °F 31.0 °F 30.09 in ESE 2.0 mph 4.0 mph 41% 0.00 in 0 W/m2
19:12 53.7 °F 31.0 °F 30.09 in ESE 1.0 mph 4.0 mph 43% 0.00 in 0 W/m2
19:27 52.3 °F 31.0 °F 30.10 in Calm   4.0 mph 45% 0.00 in 0 W/m2
19:42 50.9 °F 31.0 °F 30.11 in Calm   2.0 mph 47% 0.00 in 0 W/m2
19:57 49.7 °F 32.0 °F 30.12 in ESE 2.0 mph 6.0 mph 50% 0.00 in 0 W/m2
20:12 48.9 °F 32.0 °F 30.13 in Calm   2.0 mph 53% 0.00 in 0 W/m2
20:27 48.3 °F 32.0 °F 30.13 in Calm   3.0 mph 54% 0.00 in 0 W/m2
20:42 47.4 °F 32.0 °F 30.13 in ESE 2.0 mph 3.0 mph 56% 0.00 in 0 W/m2
20:57 46.5 °F 32.0 °F 30.13 in Calm   2.0 mph 58% 0.00 in 0 W/m2
21:12 46.2 °F 32.0 °F 30.14 in ESE 2.0 mph 4.0 mph 58% 0.00 in 0 W/m2
21:27 45.3 °F 32.0 °F 30.14 in Calm   4.0 mph 60% 0.00 in 0 W/m2
21:42 45.0 °F 33.0 °F 30.15 in ESE 2.0 mph 6.0 mph 62% 0.00 in 0 W/m2
21:57 45.5 °F 33.0 °F 30.14 in Calm   6.0 mph 62% 0.00 in 0 W/m2
22:16 45.5 °F 33.0 °F 30.14 in ESE 1.0 mph 6.0 mph 62% 0.00 in 0 W/m2
22:27 45.1 °F 33.0 °F 30.14 in Calm   3.0 mph 62% 0.00 in 0 W/m2
22:42 44.4 °F 33.0 °F 30.14 in ESE 2.0 mph 6.0 mph 64% 0.00 in 0 W/m2
22:57 44.4 °F 33.0 °F 30.14 in ESE 1.0 mph 4.0 mph 65% 0.00 in 0 W/m2
23:12 44.2 °F 33.0 °F 30.14 in Calm   7.0 mph 66% 0.00 in 0 W/m2
23:27 44.0 °F 33.0 °F 30.14 in East 6.0 mph 6.0 mph 66% 0.00 in 0 W/m2
23:42 43.6 °F 34.0 °F 30.14 in Calm   6.0 mph 68% 0.00 in 0 W/m2
23:57 43.9 °F 34.0 °F 30.13 in East 1.0 mph 3.0 mph 68% 0.00 in 0 W/m2